Peakville, New York
Current Conditions -  °F | °C
As of 5:55 PM on Monday 24 Nov 2014 (Local Time) from KMSV Reporting Station
Few Clouds Few Clouds  
Wind Chill: 59°   Ceiling: Unl
Heat Index: 59°   Visibility: 10mi
Dew Point: 52°   Wind: 13mph
Humidity: 77%   Direction: 200°SSW
Pressure: 29.62"   Gusts: 20mph
Location:  41.9811°N, 75.0952°W
Report Text: KMSV 242255Z AUTO 20011G17KT 10SM FEW028 15/11 A2962 RMK AO1
Loading
Personal Weather Stations






























Interactive Weather Map New forecast layout! Learn more

10-Day Weather Forecast

Advertisements
Track Severe Weather on mobile